createdAt,value
2023-01-17T00:03:56.064Z,6.36
2023-01-17T00:09:17.668Z,6.30
2023-01-17T00:14:20.780Z,6.50
2023-01-17T00:19:42.626Z,6.25
2023-01-17T00:25:04.470Z,6.29
2023-01-17T00:30:08.335Z,6.30
2023-01-17T00:35:11.300Z,6.60
2023-01-17T00:40:14.417Z,6.04
2023-01-17T00:45:36.266Z,5.91
2023-01-17T00:50:58.110Z,5.95
2023-01-17T00:56:21.393Z,5.95
2023-01-17T01:01:43.061Z,5.90
2023-01-17T01:07:04.673Z,5.92
2023-01-17T01:12:26.316Z,5.85
2023-01-17T01:17:47.754Z,5.89
2023-01-17T01:23:09.092Z,5.80
2023-01-17T01:28:33.603Z,5.78
2023-01-17T01:33:36.607Z,5.95
2023-01-17T01:38:40.042Z,5.87
2023-01-17T01:43:50.007Z,6.03
2023-01-17T01:48:58.855Z,5.94
2023-01-17T01:54:12.294Z,5.77
2023-01-17T01:59:19.554Z,5.62
2023-01-17T02:04:23.538Z,5.76
2023-01-17T02:09:27.913Z,5.53
2023-01-17T02:14:31.070Z,5.71
2023-01-17T02:20:07.358Z,5.62
2023-01-17T02:25:28.899Z,5.41
2023-01-17T02:30:42.664Z,5.14
2023-01-17T02:36:16.809Z,5.07
2023-01-17T02:41:25.112Z,5.09
2023-01-17T02:46:28.031Z,4.94
2023-01-17T02:51:45.184Z,4.91
2023-01-17T02:57:03.643Z,4.85
2023-01-17T03:02:10.510Z,4.85
2023-01-17T03:07:17.716Z,5.05
2023-01-17T03:12:21.743Z,4.93
2023-01-17T03:17:29.287Z,4.89
2023-01-17T03:22:32.390Z,4.95
2023-01-17T03:27:35.407Z,4.85
2023-01-17T03:32:38.404Z,4.79
2023-01-17T03:37:41.412Z,4.83
2023-01-17T03:42:44.528Z,4.86
2023-01-17T03:47:47.420Z,5.04
2023-01-17T03:52:51.357Z,4.95
2023-01-17T03:57:54.252Z,4.78
2023-01-17T04:02:57.259Z,4.54
2023-01-17T04:08:00.278Z,4.59
2023-01-17T04:13:03.271Z,4.47
2023-01-17T04:18:07.034Z,4.89
2023-01-17T04:23:10.631Z,4.97
2023-01-17T04:28:14.032Z,4.69
2023-01-17T04:33:17.446Z,4.81
2023-01-17T04:38:20.768Z,4.92
2023-01-17T04:43:23.765Z,4.92
2023-01-17T04:48:27.418Z,5.11
2023-01-17T04:53:30.616Z,5.29
2023-01-17T04:58:33.915Z,5.21
2023-01-17T05:03:36.933Z,5.29
2023-01-17T05:08:40.028Z,5.05
2023-01-17T05:13:43.138Z,4.85
2023-01-17T05:18:46.156Z,4.90
2023-01-17T05:23:49.360Z,4.77
2023-01-17T05:28:52.357Z,4.78
2023-01-17T05:33:55.480Z,4.84
2023-01-17T05:38:58.374Z,4.87
2023-01-17T05:44:01.377Z,4.93
2023-01-17T05:49:04.596Z,4.85
2023-01-17T05:54:07.596Z,4.82
2023-01-17T05:59:13.953Z,4.83
2023-01-17T06:04:17.383Z,4.85
2023-01-17T06:09:20.405Z,4.81
2023-01-17T06:14:23.512Z,4.86
2023-01-17T06:19:26.518Z,4.86
2023-01-17T06:24:30.552Z,4.73
2023-01-17T06:29:33.560Z,4.99
2023-01-17T06:34:37.902Z,4.91
2023-01-17T06:39:41.107Z,4.99
2023-01-17T06:44:44.110Z,5.20
2023-01-17T06:49:47.220Z,5.25
2023-01-17T06:54:50.125Z,5.22
2023-01-17T06:59:53.314Z,5.24
2023-01-17T07:04:56.339Z,5.43
2023-01-17T07:10:00.584Z,5.59
2023-01-17T07:15:04.160Z,5.67
2023-01-17T07:20:08.261Z,5.96
2023-01-17T07:25:11.240Z,5.89
2023-01-17T07:30:14.838Z,5.95
2023-01-17T07:35:18.399Z,6.08
2023-01-17T07:40:22.722Z,6.08
2023-01-17T07:45:25.623Z,6.02
2023-01-17T07:50:28.726Z,6.03
2023-01-17T07:55:31.840Z,6.13
2023-01-17T08:00:34.839Z,6.19
2023-01-17T08:05:37.858Z,6.24
2023-01-17T08:10:40.852Z,6.11
2023-01-17T08:15:43.857Z,6.08
2023-01-17T08:20:46.965Z,6.17
2023-01-17T08:25:50.180Z,6.22
2023-01-17T08:30:53.185Z,6.35
2023-01-17T08:35:56.393Z,6.34
2023-01-17T08:41:02.986Z,6.37
2023-01-17T08:46:06.595Z,6.45
2023-01-17T08:51:09.979Z,6.65
2023-01-17T08:56:13.132Z,6.80
2023-01-17T09:01:16.512Z,6.93
2023-01-17T09:06:19.967Z,7.00
2023-01-17T09:11:22.866Z,7.22
2023-01-17T09:16:26.320Z,7.32
2023-01-17T09:21:29.699Z,7.46
2023-01-17T09:26:32.707Z,7.35
2023-01-17T09:31:35.934Z,7.17
2023-01-17T09:36:39.022Z,7.18
2023-01-17T09:42:00.567Z,7.25
2023-01-17T09:47:15.796Z,7.16
2023-01-17T09:52:23.473Z,7.40
2023-01-17T09:57:59.727Z,7.50
2023-01-17T10:03:24.146Z,7.85
2023-01-17T10:09:18.751Z,7.92
2023-01-17T10:14:40.840Z,8.03
2023-01-17T10:20:12.014Z,8.07
2023-01-17T10:25:43.089Z,8.28
2023-01-17T10:30:58.391Z,8.49
2023-01-17T10:36:05.767Z,8.26
2023-01-17T10:41:24.445Z,8.43
2023-01-17T10:46:56.433Z,8.35
2023-01-17T10:52:13.468Z,8.22
2023-01-17T10:57:21.377Z,8.17
2023-01-17T11:02:30.030Z,8.17
2023-01-17T11:07:33.140Z,8.14
2023-01-17T11:12:47.282Z,8.06
2023-01-17T11:18:15.105Z,8.20
2023-01-17T11:23:21.483Z,8.02
2023-01-17T11:28:33.147Z,7.99
2023-01-17T11:33:55.876Z,8.03
2023-01-17T11:39:04.778Z,8.22
2023-01-17T11:44:26.451Z,8.54
2023-01-17T11:49:29.552Z,8.59
2023-01-17T11:54:39.246Z,8.66
2023-01-17T11:59:46.044Z,8.68
2023-01-17T12:04:52.004Z,8.72
2023-01-17T12:10:19.875Z,8.75
2023-01-17T12:15:34.146Z,8.75
2023-01-17T12:20:51.291Z,8.77
2023-01-17T12:26:19.888Z,8.82
2023-01-17T12:31:36.974Z,8.72
2023-01-17T12:36:49.711Z,8.84
2023-01-17T12:42:00.006Z,8.72
2023-01-17T12:47:05.927Z,8.51
2023-01-17T12:52:29.812Z,8.06
2023-01-17T12:57:39.370Z,8.01
2023-01-17T13:02:54.363Z,7.99
2023-01-17T13:08:12.827Z,7.82
2023-01-17T13:13:24.329Z,7.82
2023-01-17T13:18:30.020Z,7.76
2023-01-17T13:24:07.965Z,7.66
2023-01-17T13:29:22.921Z,7.46
2023-01-17T13:34:41.994Z,7.51
2023-01-17T13:40:22.701Z,7.52
2023-01-17T13:45:31.913Z,7.43
2023-01-17T13:50:40.992Z,7.31
2023-01-17T13:55:46.870Z,7.31
2023-01-17T14:00:50.875Z,7.32
2023-01-17T14:05:57.579Z,7.42
2023-01-17T14:11:09.987Z,7.52
2023-01-17T14:16:22.006Z,7.66
2023-01-17T14:21:26.979Z,7.72
2023-01-17T14:26:32.869Z,7.68
2023-01-17T14:31:36.082Z,7.60
2023-01-17T14:36:39.738Z,7.70
2023-01-17T14:41:43.612Z,7.70
2023-01-17T14:46:49.063Z,7.67
2023-01-17T14:52:02.837Z,7.64
2023-01-17T14:57:35.129Z,7.61
2023-01-17T15:02:43.904Z,7.55
2023-01-17T15:07:53.027Z,7.59
2023-01-17T15:12:57.938Z,7.49
2023-01-17T15:18:20.951Z,7.46
2023-01-17T15:23:30.046Z,7.47
2023-01-17T15:28:34.725Z,7.53
2023-01-17T15:33:41.250Z,7.53
2023-01-17T15:38:52.942Z,7.55
2023-01-17T15:43:58.710Z,7.60
2023-01-17T15:49:31.316Z,7.68
2023-01-17T15:54:50.564Z,7.79
2023-01-17T16:00:16.046Z,7.87
2023-01-17T16:05:22.312Z,7.93
2023-01-17T16:10:28.936Z,7.93
2023-01-17T16:15:32.456Z,7.92
2023-01-17T16:20:39.339Z,7.67
2023-01-17T16:25:42.430Z,7.49
2023-01-17T16:30:46.366Z,7.46
2023-01-17T16:35:51.439Z,7.48
2023-01-17T16:40:54.625Z,7.47
2023-01-17T16:45:58.190Z,7.33
2023-01-17T16:51:06.167Z,7.11
2023-01-17T16:56:13.745Z,6.95
2023-01-17T17:01:20.905Z,6.95
2023-01-17T17:06:24.096Z,6.81
2023-01-17T17:11:27.102Z,6.85
2023-01-17T17:16:31.004Z,6.78
2023-01-17T17:21:37.004Z,6.84
2023-01-17T17:26:41.158Z,6.96
2023-01-17T17:31:44.354Z,7.02
2023-01-17T17:36:47.463Z,7.04
2023-01-17T17:41:50.465Z,7.13
2023-01-17T17:46:53.675Z,7.20
2023-01-17T17:52:04.655Z,7.22
2023-01-17T17:57:07.777Z,7.31
2023-01-17T18:02:11.344Z,7.35
2023-01-17T18:07:15.024Z,7.35
2023-01-17T18:12:18.131Z,7.20
2023-01-17T18:17:21.083Z,7.13
2023-01-17T18:22:24.578Z,6.86
2023-01-17T18:27:27.563Z,6.64
2023-01-17T18:32:30.662Z,6.40
2023-01-17T18:37:34.191Z,6.29
2023-01-17T18:42:37.395Z,6.01
2023-01-17T18:47:40.325Z,5.93
2023-01-17T18:52:43.301Z,5.82
2023-01-17T18:57:46.314Z,5.58
2023-01-17T19:02:49.316Z,5.33
2023-01-17T19:07:52.717Z,5.27
2023-01-17T19:12:55.844Z,5.26
2023-01-17T19:17:58.958Z,5.51
2023-01-17T19:23:02.057Z,5.59
2023-01-17T19:28:05.268Z,5.52
2023-01-17T19:33:08.283Z,5.63
2023-01-17T19:38:11.288Z,5.55
2023-01-17T19:43:14.293Z,5.44
2023-01-17T19:48:17.297Z,5.44
2023-01-17T19:53:21.814Z,5.52
2023-01-17T19:58:24.748Z,5.45
2023-01-17T20:03:28.270Z,5.43
2023-01-17T20:08:31.373Z,5.46
2023-01-17T20:13:34.585Z,5.38
2023-01-17T20:18:38.619Z,5.34
2023-01-17T20:23:43.189Z,5.26
2023-01-17T20:28:47.922Z,5.14
2023-01-17T20:33:53.376Z,5.09
2023-01-17T20:38:57.462Z,5.02
2023-01-17T20:44:02.466Z,4.89
2023-01-17T20:49:07.821Z,4.75
2023-01-17T20:54:14.420Z,4.69
2023-01-17T20:59:20.392Z,4.70
2023-01-17T21:04:26.098Z,4.59
2023-01-17T21:09:29.159Z,4.37
2023-01-17T21:14:32.313Z,4.37
2023-01-17T21:19:36.711Z,4.33
2023-01-17T21:24:39.716Z,4.29
2023-01-17T21:29:42.818Z,4.29
2023-01-17T21:34:46.240Z,4.43
2023-01-17T21:39:54.893Z,4.43
2023-01-17T21:44:57.985Z,4.44
2023-01-17T21:50:01.212Z,4.44
2023-01-17T21:55:23.451Z,4.35
2023-01-17T22:00:26.454Z,4.14
2023-01-17T22:05:29.676Z,4.05
2023-01-17T22:10:33.401Z,3.98
2023-01-17T22:15:36.657Z,3.74
2023-01-17T22:20:41.414Z,3.57
2023-01-17T22:25:44.466Z,3.47
2023-01-17T22:30:47.685Z,3.40
2023-01-17T22:35:58.587Z,3.40
2023-01-17T22:41:09.776Z,3.50
2023-01-17T22:46:15.470Z,3.58
2023-01-17T22:51:20.509Z,3.56
2023-01-17T22:56:28.718Z,3.62
2023-01-17T23:01:33.067Z,3.63
2023-01-17T23:06:39.264Z,3.65
2023-01-17T23:11:50.041Z,3.66
2023-01-17T23:17:14.123Z,3.67
2023-01-17T23:22:29.188Z,3.72
2023-01-17T23:27:51.776Z,3.59
2023-01-17T23:33:00.119Z,3.45
2023-01-17T23:38:22.367Z,3.31
2023-01-17T23:43:25.579Z,3.21
2023-01-17T23:48:29.174Z,3.07
2023-01-17T23:53:32.228Z,2.94
2023-01-17T23:58:35.314Z,2.86
